createdAt,value
2023-04-05T00:00:32.501Z,18.00
2023-04-05T00:03:00.705Z,17.60
2023-04-05T00:05:31.434Z,20.58
2023-04-05T00:08:01.849Z,18.25
2023-04-05T00:10:30.385Z,18.50
2023-04-05T00:12:58.544Z,17.27
2023-04-05T00:15:28.102Z,16.95
2023-04-05T00:17:56.537Z,19.80
2023-04-05T00:20:24.524Z,19.00
2023-04-05T00:22:52.470Z,19.42
2023-04-05T00:25:22.000Z,24.02
2023-04-05T00:27:50.016Z,19.58
2023-04-05T00:30:21.016Z,19.00
2023-04-05T00:32:49.775Z,18.70
2023-04-05T00:35:18.192Z,22.05
2023-04-05T00:37:46.154Z,19.38
2023-04-05T00:40:14.240Z,19.67
2023-04-05T00:42:43.621Z,18.55
2023-04-05T00:45:11.957Z,19.00
2023-04-05T00:47:40.212Z,18.95
2023-04-05T00:50:09.780Z,21.15
2023-04-05T00:52:38.869Z,18.90
2023-04-05T00:55:09.099Z,19.30
2023-04-05T00:57:39.056Z,19.50
2023-04-05T01:00:11.822Z,20.48
2023-04-05T01:02:46.883Z,20.80
2023-04-05T01:05:22.864Z,21.88
2023-04-05T01:07:55.459Z,22.42
2023-04-05T01:10:29.554Z,21.58
2023-04-05T01:12:57.596Z,22.27
2023-04-05T01:15:27.070Z,22.17
2023-04-05T01:17:57.656Z,20.33
2023-04-05T01:20:28.460Z,21.45
2023-04-05T01:23:31.732Z,19.58
2023-04-05T01:26:26.115Z,21.45
2023-04-05T01:29:29.581Z,21.65
2023-04-05T01:32:04.329Z,19.45
2023-04-05T01:34:41.326Z,18.63
2023-04-05T01:37:13.412Z,20.00
2023-04-05T01:39:41.934Z,21.27
2023-04-05T01:42:11.251Z,19.13
2023-04-05T01:44:39.277Z,20.98
2023-04-05T01:47:08.655Z,19.35
2023-04-05T01:49:50.673Z,17.83
2023-04-05T01:52:18.643Z,20.30
2023-04-05T01:54:46.594Z,22.63
2023-04-05T01:57:14.554Z,20.60
2023-04-05T01:59:42.489Z,19.48
2023-04-05T02:02:10.450Z,20.80
2023-04-05T02:04:38.786Z,22.48
2023-04-05T02:07:08.063Z,20.67
2023-04-05T02:09:36.021Z,18.77
2023-04-05T02:12:04.259Z,20.13
2023-04-05T02:14:32.336Z,19.13
2023-04-05T02:17:03.047Z,18.58
2023-04-05T02:19:40.798Z,19.73
2023-04-05T02:22:10.322Z,22.20
2023-04-05T02:24:38.292Z,18.70
2023-04-05T02:27:07.472Z,18.10
2023-04-05T02:29:35.852Z,17.65
2023-04-05T02:32:04.091Z,18.02
2023-04-05T02:34:33.560Z,16.35
2023-04-05T02:37:01.916Z,17.75
2023-04-05T02:39:31.850Z,15.77
2023-04-05T02:41:59.987Z,18.00
2023-04-05T02:44:28.028Z,16.80
2023-04-05T02:46:56.054Z,17.65
2023-04-05T02:49:24.123Z,16.98
2023-04-05T02:51:52.108Z,17.85
2023-04-05T02:54:20.292Z,16.20
2023-04-05T02:56:50.072Z,18.40
2023-04-05T02:59:18.691Z,18.15
2023-04-05T03:01:46.768Z,18.45
2023-04-05T03:04:14.828Z,16.63
2023-04-05T03:06:48.720Z,18.23
2023-04-05T03:09:16.703Z,17.27
2023-04-05T03:11:44.707Z,19.92
2023-04-05T03:14:14.148Z,19.85
2023-04-05T03:16:42.118Z,18.67
2023-04-05T03:19:10.048Z,18.05
2023-04-05T03:21:39.765Z,18.23
2023-04-05T03:24:08.473Z,18.27
2023-04-05T03:26:36.428Z,15.32
2023-04-05T03:29:04.370Z,17.98
2023-04-05T03:31:33.773Z,19.58
2023-04-05T03:34:01.730Z,15.93
2023-04-05T03:36:30.584Z,16.27
2023-04-05T03:38:58.869Z,20.42
2023-04-05T03:41:27.054Z,16.92
2023-04-05T03:43:54.998Z,18.42
2023-04-05T03:46:23.055Z,17.92
2023-04-05T03:48:52.783Z,19.60
2023-04-05T03:51:20.944Z,18.67
2023-04-05T03:53:48.870Z,17.63
2023-04-05T03:56:16.910Z,15.25
2023-04-05T03:58:45.357Z,17.00
2023-04-05T04:01:13.443Z,18.42
2023-04-05T04:03:41.386Z,17.40
2023-04-05T04:06:10.846Z,16.30
2023-04-05T04:08:39.426Z,18.10
2023-04-05T04:11:08.261Z,16.40
2023-04-05T04:13:36.263Z,18.98
2023-04-05T04:16:04.811Z,22.73
2023-04-05T04:18:32.877Z,18.63
2023-04-05T04:21:06.672Z,17.08
2023-04-05T04:23:38.633Z,20.13
2023-04-05T04:26:06.736Z,19.33
2023-04-05T04:28:38.744Z,20.33
2023-04-05T04:31:09.129Z,18.90
2023-04-05T04:33:38.029Z,18.85
2023-04-05T04:36:09.377Z,20.15
2023-04-05T04:38:42.707Z,20.23
2023-04-05T04:41:11.823Z,20.83
2023-04-05T04:43:43.679Z,17.45
2023-04-05T04:46:14.900Z,20.30
2023-04-05T04:48:43.314Z,17.47
2023-04-05T04:51:11.276Z,18.83
2023-04-05T04:53:40.647Z,17.45
2023-04-05T04:56:09.067Z,18.58
2023-04-05T04:58:37.116Z,19.27
2023-04-05T05:01:09.839Z,21.17
2023-04-05T05:03:38.636Z,20.45
2023-04-05T05:06:07.367Z,19.20
2023-04-05T05:08:35.611Z,20.50
2023-04-05T05:11:08.123Z,19.45
2023-04-05T05:13:36.361Z,18.50
2023-04-05T05:16:05.587Z,19.30
2023-04-05T05:18:33.565Z,19.15
2023-04-05T05:21:01.753Z,18.05
2023-04-05T05:23:29.741Z,19.58
2023-04-05T05:26:00.382Z,22.52
2023-04-05T05:28:29.674Z,21.45
2023-04-05T05:30:57.694Z,19.50
2023-04-05T05:33:26.477Z,21.95
2023-04-05T05:35:54.454Z,22.17
2023-04-05T05:38:22.503Z,23.38
2023-04-05T05:40:55.839Z,22.48
2023-04-05T05:43:23.789Z,21.48
2023-04-05T05:45:53.244Z,20.65
2023-04-05T05:48:21.362Z,18.80
2023-04-05T05:50:50.569Z,20.55
2023-04-05T05:53:18.580Z,23.13
2023-04-05T05:55:46.751Z,21.88
2023-04-05T05:58:14.703Z,23.50
2023-04-05T06:00:42.857Z,23.42
2023-04-05T06:03:12.471Z,24.13
2023-04-05T06:05:40.537Z,24.20
2023-04-05T06:08:09.752Z,26.58
2023-04-05T06:10:39.056Z,24.77
2023-04-05T06:13:07.160Z,26.38
2023-04-05T06:15:35.168Z,26.42
2023-04-05T06:18:03.161Z,24.95
2023-04-05T06:20:32.567Z,25.05
2023-04-05T06:23:00.529Z,26.45
2023-04-05T06:25:28.554Z,26.40
2023-04-05T06:27:56.887Z,28.25
2023-04-05T06:30:24.873Z,28.17
2023-04-05T06:32:54.594Z,25.77
2023-04-05T06:35:23.797Z,28.67
2023-04-05T06:37:53.552Z,28.60
2023-04-05T06:40:21.705Z,26.48
2023-04-05T06:42:49.687Z,38.65
2023-04-05T06:45:19.168Z,25.45
2023-04-05T06:47:47.188Z,27.73
2023-04-05T06:50:15.247Z,32.10
2023-04-05T06:52:43.205Z,28.17
2023-04-05T06:55:12.711Z,31.83
2023-04-05T06:57:40.718Z,23.83
2023-04-05T07:00:11.710Z,26.00
2023-04-05T07:02:40.110Z,29.08
2023-04-05T07:05:09.020Z,32.88
2023-04-05T07:07:40.818Z,27.92
2023-04-05T07:10:09.896Z,27.88
2023-04-05T07:12:40.559Z,27.45
2023-04-05T07:15:09.682Z,27.10
2023-04-05T07:17:37.940Z,26.00
2023-04-05T07:20:08.069Z,25.25
2023-04-05T07:22:36.214Z,24.70
2023-04-05T07:25:04.232Z,24.58
2023-04-05T07:27:32.236Z,24.80
2023-04-05T07:30:01.576Z,26.55
2023-04-05T07:32:29.696Z,26.55
2023-04-05T07:34:57.726Z,23.92
2023-04-05T07:37:27.302Z,27.20
2023-04-05T07:39:55.323Z,26.42
2023-04-05T07:42:23.286Z,27.00
2023-04-05T07:44:51.281Z,29.85
2023-04-05T07:47:20.667Z,25.38
2023-04-05T07:49:48.612Z,25.98
2023-04-05T07:52:16.822Z,57.35
2023-04-05T07:54:45.982Z,31.95
2023-04-05T07:57:18.079Z,26.42
2023-04-05T07:59:46.055Z,19.92
2023-04-05T08:02:14.869Z,19.33
2023-04-05T08:04:44.465Z,23.48
2023-04-05T08:07:12.532Z,26.00
2023-04-05T08:09:40.524Z,21.15
2023-04-05T08:12:08.977Z,19.83
2023-04-05T08:14:37.030Z,18.25
2023-04-05T08:17:05.117Z,18.52
2023-04-05T08:19:33.083Z,17.27
2023-04-05T08:22:02.424Z,21.75
2023-04-05T08:24:30.398Z,17.13
2023-04-05T08:26:58.372Z,21.05
2023-04-05T08:29:26.356Z,20.83
2023-04-05T08:31:57.032Z,20.75
2023-04-05T08:34:25.114Z,18.08
2023-04-05T08:36:53.126Z,16.85
2023-04-05T08:39:22.533Z,21.35
2023-04-05T08:41:57.327Z,19.45
2023-04-05T08:44:30.121Z,20.25
2023-04-05T08:47:00.469Z,17.98
2023-04-05T08:49:29.504Z,17.77
2023-04-05T08:51:58.137Z,21.90
2023-04-05T08:54:27.495Z,17.30
2023-04-05T08:56:58.108Z,16.10
2023-04-05T08:59:27.022Z,17.40
2023-04-05T09:01:56.116Z,16.30
2023-04-05T09:04:26.611Z,18.85
2023-04-05T09:06:58.822Z,19.45
2023-04-05T09:09:33.396Z,19.13
2023-04-05T09:12:01.507Z,15.35
2023-04-05T09:14:31.227Z,16.30
2023-04-05T09:17:01.735Z,16.38
2023-04-05T09:19:29.870Z,17.98
2023-04-05T09:22:04.614Z,18.27
2023-04-05T09:24:36.765Z,18.88
2023-04-05T09:27:10.106Z,17.60
2023-04-05T09:29:39.044Z,17.65
2023-04-05T09:32:08.159Z,18.98
2023-04-05T09:34:37.993Z,15.20
2023-04-05T09:37:14.543Z,18.40
2023-04-05T09:39:44.569Z,15.75
2023-04-05T09:42:15.425Z,18.40
2023-04-05T09:44:57.243Z,17.58
2023-04-05T09:47:30.909Z,17.73
2023-04-05T09:49:58.931Z,15.25
2023-04-05T09:52:28.908Z,14.82
2023-04-05T09:54:59.478Z,18.58
2023-04-05T09:57:29.533Z,18.95
2023-04-05T09:59:57.719Z,16.55
2023-04-05T10:02:26.567Z,18.13
2023-04-05T10:04:54.610Z,15.50
2023-04-05T10:07:22.606Z,17.00
2023-04-05T10:09:50.548Z,18.50
2023-04-05T10:12:27.031Z,17.60
2023-04-05T10:14:55.128Z,20.50
2023-04-05T10:17:27.530Z,17.35
2023-04-05T10:22:36.660Z,18.20
2023-04-05T10:25:12.380Z,19.50
2023-04-05T10:27:49.452Z,18.17
2023-04-05T10:30:18.030Z,17.33
2023-04-05T10:33:01.728Z,16.23
2023-04-05T10:35:35.522Z,17.58
2023-04-05T10:38:26.600Z,17.38
2023-04-05T10:40:56.874Z,18.80
2023-04-05T10:43:27.816Z,17.13
2023-04-05T10:45:58.575Z,14.57
2023-04-05T10:48:37.756Z,18.83
2023-04-05T10:51:06.333Z,18.60
2023-04-05T10:53:35.530Z,17.50
2023-04-05T10:56:03.772Z,17.77
2023-04-05T10:58:34.298Z,16.73
2023-04-05T11:01:04.265Z,16.92
2023-04-05T11:03:49.340Z,18.33
2023-04-05T11:06:22.346Z,18.38
2023-04-05T11:08:53.904Z,16.15
2023-04-05T11:11:24.645Z,19.37
2023-04-05T11:13:55.656Z,17.13
2023-04-05T11:16:24.957Z,21.23
2023-04-05T11:18:53.760Z,18.73
2023-04-05T11:21:24.581Z,17.42
2023-04-05T11:24:06.660Z,18.85
2023-04-05T11:26:54.268Z,19.67
2023-04-05T11:29:49.568Z,18.75
2023-04-05T11:32:18.145Z,18.42
2023-04-05T11:34:46.568Z,17.45
2023-04-05T11:37:16.962Z,19.00
2023-04-05T11:39:45.032Z,19.60
2023-04-05T11:42:13.531Z,19.55
2023-04-05T11:44:44.016Z,19.05
2023-04-05T11:47:13.762Z,22.98
2023-04-05T11:49:42.239Z,17.98
2023-04-05T11:52:15.564Z,18.70
2023-04-05T11:54:47.101Z,18.42
2023-04-05T11:57:17.563Z,15.98
2023-04-05T11:59:45.616Z,17.50
2023-04-05T12:02:14.972Z,15.70
2023-04-05T12:04:42.957Z,19.77
2023-04-05T12:07:15.842Z,18.77
2023-04-05T12:10:16.168Z,16.98
2023-04-05T12:12:45.164Z,17.23
2023-04-05T12:15:15.141Z,17.50
2023-04-05T12:17:47.068Z,17.58
2023-04-05T12:20:17.242Z,18.65
2023-04-05T12:22:48.348Z,17.25
2023-04-05T12:25:17.496Z,17.38
2023-04-05T12:27:46.277Z,19.05
2023-04-05T12:30:16.855Z,15.27
2023-04-05T12:32:48.761Z,18.33
2023-04-05T12:35:22.313Z,17.50
2023-04-05T12:37:52.227Z,20.20
2023-04-05T12:40:24.549Z,16.90
2023-04-05T12:45:25.231Z,17.48
2023-04-05T12:47:58.744Z,20.45
2023-04-05T12:50:29.198Z,19.83
2023-04-05T12:52:58.769Z,18.58
2023-04-05T12:55:28.126Z,18.27
2023-04-05T12:57:59.365Z,20.02
2023-04-05T13:00:29.652Z,17.95
2023-04-05T13:03:00.608Z,17.23
2023-04-05T13:05:30.060Z,19.40
2023-04-05T13:07:58.200Z,17.65
2023-04-05T13:10:27.477Z,16.80
2023-04-05T13:12:55.484Z,17.40
2023-04-05T13:15:23.660Z,23.75
2023-04-05T13:17:53.364Z,20.98
2023-04-05T13:20:23.262Z,17.90
2023-04-05T13:22:51.660Z,18.40
2023-04-05T13:25:19.659Z,22.33
2023-04-05T13:27:48.283Z,22.75
2023-04-05T13:30:16.602Z,21.20
2023-04-05T13:32:44.810Z,21.60
2023-04-05T13:35:13.157Z,21.08
2023-04-05T13:37:42.512Z,22.20
2023-04-05T13:40:11.465Z,21.33
2023-04-05T13:42:39.639Z,20.88
2023-04-05T13:45:08.632Z,20.88
2023-04-05T13:47:36.643Z,23.55
2023-04-05T13:50:05.083Z,20.77
2023-04-05T13:52:33.079Z,22.80
2023-04-05T13:55:03.828Z,23.60
2023-04-05T13:57:32.627Z,24.10
2023-04-05T14:00:00.890Z,22.10
2023-04-05T14:02:29.336Z,22.42
2023-04-05T14:04:57.602Z,21.45
2023-04-05T14:07:26.110Z,21.45
2023-04-05T14:09:54.155Z,20.75
2023-04-05T14:12:23.506Z,25.83
2023-04-05T14:14:51.556Z,23.02
2023-04-05T14:17:19.580Z,20.60
2023-04-05T14:19:47.582Z,22.33
2023-04-05T14:22:15.615Z,21.67
2023-04-05T14:24:43.502Z,20.30
2023-04-05T14:27:11.496Z,17.83
2023-04-05T14:29:40.765Z,23.70
2023-04-05T14:32:08.786Z,25.67
2023-04-05T14:34:37.181Z,22.90
2023-04-05T14:37:06.718Z,19.27
2023-04-05T14:39:34.828Z,23.95
2023-04-05T14:42:03.268Z,23.45
2023-04-05T14:44:31.557Z,20.67
2023-04-05T14:47:01.232Z,21.70
2023-04-05T14:49:29.247Z,21.42
2023-04-05T14:51:57.230Z,21.42
2023-04-05T14:54:25.272Z,21.95
2023-04-05T14:56:53.274Z,20.88
2023-04-05T14:59:21.336Z,20.40
2023-04-05T15:01:49.345Z,19.75
2023-04-05T15:04:18.748Z,20.25
2023-04-05T15:06:46.727Z,24.48
2023-04-05T15:09:15.335Z,25.55
2023-04-05T15:11:43.425Z,27.58
2023-04-05T15:14:21.029Z,25.10
2023-04-05T15:16:56.772Z,28.08
2023-04-05T15:19:27.351Z,27.58
2023-04-05T15:21:55.398Z,28.63
2023-04-05T15:24:23.415Z,26.70
2023-04-05T15:26:51.394Z,25.55
2023-04-05T15:29:19.375Z,31.27
2023-04-05T15:31:47.671Z,27.70
2023-04-05T15:34:15.893Z,26.85
2023-04-05T15:36:45.580Z,25.52
2023-04-05T15:39:14.495Z,25.23
2023-04-05T15:41:42.552Z,25.92
2023-04-05T15:44:10.579Z,28.58
2023-04-05T15:46:38.577Z,26.13
2023-04-05T15:49:07.188Z,25.95
2023-04-05T15:51:36.217Z,28.98
2023-04-05T15:54:05.764Z,25.35
2023-04-05T15:56:33.666Z,29.52
2023-04-05T15:59:01.943Z,26.70
2023-04-05T16:01:30.345Z,29.63
2023-04-05T16:03:58.409Z,26.23
2023-04-05T16:06:28.315Z,24.73
2023-04-05T16:08:56.303Z,26.95
2023-04-05T16:11:26.013Z,25.15
2023-04-05T16:13:56.956Z,24.75
2023-04-05T16:16:38.168Z,29.05
2023-04-05T16:19:12.918Z,24.67
2023-04-05T16:21:40.855Z,28.30
2023-04-05T16:24:08.960Z,24.35
2023-04-05T16:26:38.317Z,25.00
2023-04-05T16:29:06.393Z,27.13
2023-04-05T16:31:35.817Z,27.42
2023-04-05T16:34:03.816Z,25.55
2023-04-05T16:36:32.000Z,27.85
2023-04-05T16:39:00.154Z,27.50
2023-04-05T16:41:28.318Z,27.75
2023-04-05T16:43:57.655Z,27.13
2023-04-05T16:46:26.362Z,26.15
2023-04-05T16:48:54.451Z,25.98
2023-04-05T16:51:22.660Z,25.80
2023-04-05T16:53:50.916Z,25.60
2023-04-05T16:56:19.117Z,25.92
2023-04-05T16:58:47.094Z,27.20
2023-04-05T17:01:16.806Z,26.58
2023-04-05T17:03:47.065Z,26.13
2023-04-05T17:06:15.742Z,26.85
2023-04-05T17:08:43.747Z,23.52
2023-04-05T17:11:11.744Z,25.95
2023-04-05T17:13:41.405Z,25.77
2023-04-05T17:16:09.404Z,26.33
2023-04-05T17:18:38.729Z,25.73
2023-04-05T17:21:07.287Z,26.50
2023-04-05T17:23:35.277Z,28.20
2023-04-05T17:26:03.238Z,30.17
2023-04-05T17:28:32.278Z,28.80
2023-04-05T17:31:00.454Z,24.83
2023-04-05T17:33:28.733Z,29.55
2023-04-05T17:35:58.853Z,28.23
2023-04-05T17:38:27.795Z,30.30
2023-04-05T17:40:57.286Z,28.23
2023-04-05T17:43:25.334Z,25.70
2023-04-05T17:45:54.367Z,27.90
2023-04-05T17:48:22.716Z,27.80
2023-04-05T17:50:50.698Z,32.90
2023-04-05T17:53:20.832Z,28.65
2023-04-05T17:55:48.759Z,26.45
2023-04-05T17:58:16.833Z,32.47
2023-04-05T18:00:44.952Z,29.60
2023-04-05T18:03:13.389Z,29.75
2023-04-05T18:05:41.521Z,28.35
2023-04-05T18:08:09.509Z,27.83
2023-04-05T18:10:38.812Z,28.27
2023-04-05T18:13:06.984Z,28.60
2023-04-05T18:15:34.891Z,33.47
2023-04-05T18:18:02.932Z,28.45
2023-04-05T18:20:31.006Z,31.25
2023-04-05T18:23:00.417Z,31.45
2023-04-05T18:25:28.847Z,31.30
2023-04-05T18:27:58.131Z,31.02
2023-04-05T18:30:26.092Z,31.88
2023-04-05T18:32:54.177Z,30.65
2023-04-05T18:35:24.005Z,31.27
2023-04-05T18:37:52.207Z,29.65
2023-04-05T18:40:20.934Z,30.48
2023-04-05T18:42:48.971Z,30.52
2023-04-05T18:45:18.562Z,32.53
2023-04-05T18:47:46.667Z,30.20
2023-04-05T18:53:06.815Z,30.02
2023-04-05T18:55:34.809Z,32.08
2023-04-05T18:58:03.319Z,30.45
2023-04-05T19:04:05.952Z,33.43
2023-04-05T19:06:34.771Z,28.75
2023-04-05T19:09:03.072Z,32.15
2023-04-05T19:11:31.080Z,31.42
2023-04-05T19:14:00.436Z,34.75
2023-04-05T19:16:31.364Z,33.00
2023-04-05T19:18:59.481Z,33.10
2023-04-05T19:21:28.822Z,33.55
2023-04-05T19:23:57.580Z,32.58
2023-04-05T19:26:25.660Z,32.58
2023-04-05T19:28:53.607Z,32.22
2023-04-05T19:31:21.846Z,35.72
2023-04-05T19:33:50.495Z,34.20
2023-04-05T19:36:18.629Z,34.95
2023-04-05T19:38:48.024Z,36.60
2023-04-05T19:41:16.007Z,34.00
2023-04-05T19:43:44.240Z,33.88
2023-04-05T19:46:12.311Z,32.55
2023-04-05T19:48:41.876Z,32.20
2023-04-05T19:51:10.900Z,33.75
2023-04-05T19:53:44.323Z,34.45
2023-04-05T19:56:17.117Z,32.90
2023-04-05T19:58:45.508Z,36.65
2023-04-05T20:01:29.726Z,39.05
2023-04-05T20:03:58.134Z,37.60
2023-04-05T20:06:27.166Z,35.90
2023-04-05T20:09:00.686Z,32.63
2023-04-05T20:11:30.971Z,37.25
2023-04-05T20:14:01.860Z,35.08
2023-04-05T20:16:31.655Z,37.65
2023-04-05T20:19:02.403Z,38.83
2023-04-05T20:21:30.950Z,39.33
2023-04-05T20:23:59.247Z,37.95
2023-04-05T20:26:31.406Z,35.85
2023-04-05T20:29:01.276Z,39.63
2023-04-05T20:31:30.879Z,35.92
2023-04-05T20:34:06.556Z,38.53
2023-04-05T20:36:36.860Z,36.58
2023-04-05T20:39:07.373Z,37.70
2023-04-05T20:41:37.212Z,35.65
2023-04-05T20:44:05.292Z,40.20
2023-04-05T20:46:33.345Z,39.58
2023-04-05T20:49:01.552Z,38.70
2023-04-05T20:51:29.536Z,36.85
2023-04-05T20:53:57.530Z,38.03
2023-04-05T20:56:25.569Z,37.63
2023-04-05T20:58:56.076Z,39.90
2023-04-05T21:01:24.134Z,37.63
2023-04-05T21:03:53.106Z,38.33
2023-04-05T21:06:21.357Z,36.17
2023-04-05T21:08:49.409Z,40.75
2023-04-05T21:11:17.393Z,36.78
2023-04-05T21:13:45.358Z,37.80
2023-04-05T21:16:15.119Z,39.80
2023-04-05T21:18:43.167Z,41.40
2023-04-05T21:21:11.154Z,38.95
2023-04-05T21:23:39.193Z,44.35
2023-04-05T21:26:07.588Z,41.20
2023-04-05T21:28:35.863Z,43.10
2023-04-05T21:31:03.886Z,41.65
2023-04-05T21:33:33.260Z,42.38
2023-04-05T21:36:01.264Z,41.20
2023-04-05T21:38:29.281Z,40.40
2023-04-05T21:40:57.260Z,42.25
2023-04-05T21:43:25.236Z,40.22
2023-04-05T21:45:53.505Z,37.40
2023-04-05T21:48:21.781Z,37.65
2023-04-05T21:50:51.147Z,39.35
2023-04-05T21:53:19.079Z,39.10
2023-04-05T21:55:47.156Z,39.63
2023-04-05T21:58:15.224Z,41.30
2023-04-05T22:00:43.265Z,36.50
2023-04-05T22:03:11.355Z,41.47
2023-04-05T22:05:39.400Z,39.13
2023-04-05T22:08:09.913Z,37.95
2023-04-05T22:10:38.889Z,39.23
2023-04-05T22:13:07.035Z,43.85
2023-04-05T22:15:35.091Z,45.53
2023-04-05T22:18:03.915Z,40.20
2023-04-05T22:20:31.925Z,43.90
2023-04-05T22:22:59.904Z,44.55
2023-04-05T22:25:29.353Z,40.28
2023-04-05T22:28:02.815Z,41.53
2023-04-05T22:30:42.816Z,39.25
2023-04-05T22:33:12.912Z,42.88
2023-04-05T22:35:41.372Z,40.08
2023-04-05T22:38:09.641Z,40.38
2023-04-05T22:40:39.066Z,40.25
2023-04-05T22:43:07.054Z,41.72
2023-04-05T22:45:35.133Z,45.08
2023-04-05T22:48:03.171Z,40.75
2023-04-05T22:50:31.375Z,41.90
2023-04-05T22:52:59.493Z,43.72
2023-04-05T22:55:27.413Z,46.22
2023-04-05T22:57:56.809Z,45.72
2023-04-05T23:00:24.841Z,43.10
2023-04-05T23:02:52.877Z,40.78
2023-04-05T23:05:21.023Z,44.08
2023-04-05T23:07:48.987Z,40.55
2023-04-05T23:10:17.040Z,42.40
2023-04-05T23:12:46.400Z,42.28
2023-04-05T23:15:15.828Z,44.65
2023-04-05T23:17:43.906Z,45.88
2023-04-05T23:20:12.878Z,42.03
2023-04-05T23:22:40.872Z,40.05
2023-04-05T23:25:10.212Z,39.92
2023-04-05T23:27:38.217Z,41.67
2023-04-05T23:30:07.898Z,40.95
2023-04-05T23:32:37.344Z,46.22
2023-04-05T23:35:05.897Z,41.80
2023-04-05T23:37:33.868Z,40.67
2023-04-05T23:40:01.917Z,37.15
2023-04-05T23:42:29.923Z,45.45
2023-04-05T23:44:57.880Z,39.30
2023-04-05T23:47:25.866Z,39.50
2023-04-05T23:49:55.212Z,42.65
2023-04-05T23:52:23.169Z,44.42
2023-04-05T23:54:51.138Z,44.10
2023-04-05T23:57:19.079Z,41.85
2023-04-05T23:59:47.070Z,41.25
